| time (UTC) | temp C | wind direction | speed KPH | gust KPH | rain 1hr cm | rain 24hr cm | rain mn cm | humidity % | barometer mb |
| 20260508203005 | 20 | 72 | 3.2 | 11.3 | 0.00 | 0.10 | 0.00 | 48 | 1014.1 |
| 20260508202506 | 20 | 25 | 3.2 | 9.7 | 0.00 | 0.10 | 0.00 | 49 | 1014.2 |
| 20260508202004 | 19 | 12 | 3.2 | 6.4 | 0.00 | 0.10 | 0.00 | 50 | 1014.2 |
| 20260508201505 | 19 | 13 | 3.2 | 8.0 | 0.00 | 0.10 | 0.00 | 48 | 1014.2 |
| 20260508201005 | 19 | 13 | 3.2 | 11.3 | 0.00 | 0.10 | 0.00 | 49 | 1014.3 |
| 20260508200505 | 19 | 17 | 4.8 | 14.5 | 0.00 | 0.10 | 0.00 | 48 | 1014.2 |
| 20260508195505 | 20 | 13 | 4.8 | 11.3 | 0.00 | 0.10 | 0.00 | 48 | 1014.3 |
| 20260508195005 | 20 | 13 | 4.8 | 12.9 | 0.00 | 0.10 | 0.00 | 49 | 1014.3 |
| 20260508194505 | 19 | 13 | 4.8 | 14.5 | 0.00 | 0.10 | 0.00 | 49 | 1014.3 |
| 20260508194004 | 19 | 19 | 4.8 | 14.5 | 0.00 | 0.10 | 0.00 | 53 | 1014.4 |
| 20260508193505 | 19 | 34 | 6.4 | 14.5 | 0.00 | 0.10 | 0.00 | 52 | 1014.5 |
| 20260508193006 | 19 | 42 | 6.4 | 17.7 | 0.00 | 0.10 | 0.00 | 51 | 1014.6 |
| 20260508192505 | 19 | 37 | 6.4 | 17.7 | 0.00 | 0.10 | 0.00 | 52 | 1014.7 |
| 20260508192005 | 19 | 29 | 4.8 | 11.3 | 0.00 | 0.10 | 0.00 | 50 | 1014.9 |
| 20260508191505 | 18 | 18 | 4.8 | 11.3 | 0.00 | 0.10 | 0.00 | 49 | 1014.9 |
| 20260508190504 | 18 | 12 | 4.8 | 12.9 | 0.00 | 0.10 | 0.00 | 47 | 1015.1 |
| 20260508185006 | 18 | 12 | 8.0 | 17.7 | 0.00 | 0.10 | 0.00 | 48 | 1015.2 |
| 20260508184506 | 18 | 14 | 6.4 | 16.1 | 0.00 | 0.10 | 0.00 | 48 | 1015.2 |
| 20260508184006 | 18 | 14 | 6.4 | 16.1 | 0.00 | 0.10 | 0.00 | 47 | 1015.2 |
| 20260508183504 | 18 | 13 | 4.8 | 12.9 | 0.00 | 0.10 | 0.00 | 45 | 1015.3 |
| 20260508183006 | 18 | 13 | 6.4 | 16.1 | 0.00 | 0.10 | 0.00 | 47 | 1015.3 |
| 20260508182505 | 18 | 17 | 6.4 | 16.1 | 0.00 | 0.10 | 0.00 | 45 | 1015.4 |
| 20260508182006 | 18 | 18 | 4.8 | 11.3 | 0.00 | 0.10 | 0.00 | 45 | 1015.5 |
| 20260508181505 | 18 | 20 | 4.8 | 12.9 | 0.00 | 0.10 | 0.00 | 43 | 1015.5 |
| 20260508181005 | 18 | 25 | 6.4 | 12.9 | 0.00 | 0.10 | 0.00 | 44 | 1015.5 |
| 20260508180505 | 18 | 23 | 6.4 | 12.9 | 0.00 | 0.10 | 0.00 | 45 | 1015.6 |
| 20260508174505 | 17 | 11 | 6.4 | 14.5 | 0.00 | 0.13 | 0.00 | 48 | 1015.8 |
| 20260508174005 | 17 | 11 | 4.8 | 14.5 | 0.00 | 0.15 | 0.00 | 50 | 1016.0 |
| 20260508173505 | 17 | 11 | 6.4 | 14.5 | 0.00 | 0.15 | 0.00 | 48 | 1016.1 |
| 20260508172505 | 17 | 17 | 4.8 | 14.5 | 0.00 | 0.20 | 0.00 | 47 | 1016.3 |
| 20260508172005 | 17 | 18 | 3.2 | 9.7 | 0.00 | 0.25 | 0.00 | 46 | 1016.3 |
| 20260508171006 | 17 | 16 | 4.8 | 11.3 | 0.00 | 0.30 | 0.00 | 45 | 1016.5 |
| 20260508170505 | 17 | 15 | 4.8 | 11.3 | 0.00 | 0.33 | 0.00 | 46 | 1016.6 |
| 20260508170006 | 17 | 14 | 6.4 | 14.5 | 0.00 | 0.33 | 0.00 | 47 | 1016.7 |
| 20260508165505 | 17 | 12 | 6.4 | 14.5 | 0.00 | 0.36 | 0.00 | 48 | 1016.6 |
| 20260508165005 | 17 | 12 | 4.8 | 14.5 | 0.00 | 0.36 | 0.00 | 48 | 1016.6 |
| 20260508164505 | 17 | 12 | 3.2 | 11.3 | 0.00 | 0.38 | 0.00 | 51 | 1016.6 |
| 20260508163505 | 16 | 14 | 6.4 | 12.9 | 0.00 | 0.46 | 0.00 | 50 | 1016.7 |
| 20260508163005 | 16 | 12 | 4.8 | 12.9 | 0.00 | 0.48 | 0.00 | 49 | 1016.8 |
| 20260508162505 | 16 | 12 | 4.8 | 12.9 | 0.00 | 0.51 | 0.00 | 51 | 1016.9 |
| 20260508162006 | 16 | 15 | 4.8 | 11.3 | 0.00 | 0.51 | 0.00 | 53 | 1016.9 |
| 20260508161505 | 16 | 13 | 4.8 | 12.9 | 0.00 | 0.53 | 0.00 | 52 | 1016.9 |
| 20260508160505 | 16 | 11 | 4.8 | 14.5 | 0.00 | 0.64 | 0.00 | 54 | 1016.9 |
| 20260508160006 | 16 | 13 | 4.8 | 12.9 | 0.00 | 0.66 | 0.00 | 55 | 1017.0 |
| 20260508155505 | 16 | 13 | 6.4 | 16.1 | 0.00 | 0.71 | 0.00 | 57 | 1017.0 |
| 20260508155005 | 16 | 12 | 6.4 | 16.1 | 0.00 | 0.76 | 0.00 | 58 | 1017.1 |
| 20260508154505 | 16 | 11 | 6.4 | 14.5 | 0.00 | 0.76 | 0.00 | 60 | 1017.1 |
| 20260508153504 | 16 | 13 | 4.8 | 12.9 | 0.00 | 0.81 | 0.00 | 64 | 1017.1 |
| 20260508153007 | 16 | 12 | 6.4 | 17.7 | 0.00 | 0.86 | 0.00 | 66 | 1017.1 |
| 20260508152505 | 16 | 11 | 9.7 | 17.7 | 0.00 | 0.94 | 0.00 | 64 | 1017.2 |
| 20260508152005 | 16 | 11 | 9.7 | 19.3 | 0.00 | 0.99 | 0.00 | 66 | 1017.1 |
| 20260508151505 | 16 | 11 | 9.7 | 19.3 | 0.00 | 1.07 | 0.00 | 66 | 1017.1 |
| 20260508151004 | 16 | 13 | 9.7 | 19.3 | 0.00 | 1.17 | 0.00 | 67 | 1017.1 |
| 20260508150505 | 16 | 15 | 8.0 | 19.3 | 0.00 | 1.24 | 0.00 | 66 | 1017.1 |
| 20260508150006 | 16 | 14 | 8.0 | 19.3 | 0.00 | 1.30 | 0.00 | 65 | 1017.1 |
| 20260508145505 | 16 | 14 | 8.0 | 19.3 | 0.00 | 1.35 | 0.00 | 63 | 1017.0 |
| 20260508145005 | 16 | 16 | 8.0 | 17.7 | 0.00 | 1.37 | 0.00 | 61 | 1017.0 |
| 20260508144505 | 15 | 14 | 9.7 | 19.3 | 0.00 | 1.40 | 0.00 | 58 | 1017.0 |
| 20260508144005 | 15 | 12 | 9.7 | 19.3 | 0.00 | 1.40 | 0.00 | 60 | 1016.9 |
| 20260508143504 | 15 | 12 | 8.0 | 17.7 | 0.00 | 1.42 | 0.00 | 65 | 1016.9 |
| 20260508142505 | 15 | 14 | 8.0 | 16.1 | 0.00 | 1.42 | 0.00 | 69 | 1016.8 |
| 20260508142005 | 15 | 13 | 8.0 | 16.1 | 0.00 | 1.42 | 0.00 | 72 | 1016.8 |
| 20260508141005 | 15 | 12 | 6.4 | 16.1 | 0.00 | 1.42 | 0.00 | 73 | 1016.7 |
| 20260508140504 | 15 | 11 | 8.0 | 19.3 | 0.00 | 1.45 | 0.00 | 73 | 1016.6 |
| 20260508140005 | 15 | 12 | 8.0 | 19.3 | 0.00 | 1.45 | 0.00 | 73 | 1016.6 |
| 20260508135504 | 15 | 14 | 8.0 | 16.1 | 0.00 | 1.45 | 0.00 | 75 | 1016.6 |
| 20260508135005 | 15 | 14 | 8.0 | 17.7 | 0.00 | 1.45 | 0.00 | 76 | 1016.6 |
| 20260508134505 | 15 | 14 | 6.4 | 17.7 | 0.00 | 1.45 | 0.00 | 77 | 1016.5 |
| 20260508134004 | 15 | 12 | 6.4 | 16.1 | 0.00 | 1.45 | 0.00 | 78 | 1016.4 |
| 20260508133504 | 15 | 11 | 8.0 | 17.7 | 0.00 | 1.45 | 0.00 | 77 | 1016.4 |
| 20260508133005 | 15 | 11 | 6.4 | 17.7 | 0.00 | 1.45 | 0.00 | 77 | 1016.4 |
| 20260508132505 | 15 | 12 | 4.8 | 14.5 | 0.00 | 1.45 | 0.00 | 78 | 1016.4 |
| 20260508132005 | 15 | 13 | 6.4 | 14.5 | 0.00 | 1.45 | 0.00 | 80 | 1016.4 |
| 20260508131505 | 15 | 12 | 6.4 | 17.7 | 0.00 | 1.45 | 0.00 | 79 | 1016.3 |
| 20260508131005 | 14 | 12 | 8.0 | 19.3 | 0.00 | 1.45 | 0.00 | 79 | 1016.2 |
| 20260508130005 | 14 | 13 | 8.0 | 19.3 | 0.00 | 1.47 | 0.00 | 79 | 1016.2 |
| 20260508125504 | 14 | 13 | 8.0 | 16.1 | 0.00 | 1.50 | 0.00 | 79 | 1016.2 |
| 20260508125005 | 14 | 12 | 6.4 | 16.1 | 0.00 | 1.52 | 0.00 | 79 | 1016.2 |
| 20260508124505 | 14 | 12 | 6.4 | 19.3 | 0.00 | 1.52 | 0.00 | 80 | 1016.2 |
| 20260508124005 | 14 | 12 | 8.0 | 19.3 | 0.00 | 1.52 | 0.00 | 80 | 1016.2 |
| 20260508123505 | 14 | 12 | 8.0 | 16.1 | 0.00 | 1.52 | 0.00 | 79 | 1016.2 |
| 20260508123006 | 13 | 14 | 6.4 | 16.1 | 0.00 | 1.52 | 0.00 | 80 | 1016.0 |
| 20260508122505 | 13 | 13 | 6.4 | 16.1 | 0.00 | 1.55 | 0.00 | 81 | 1016.0 |
| 20260508122005 | 13 | 12 | 6.4 | 16.1 | 0.00 | 1.55 | 0.00 | 80 | 1015.8 |
| 20260508121505 | 13 | 12 | 6.4 | 17.7 | 0.00 | 1.57 | 0.00 | 81 | 1015.8 |
| 20260508121005 | 13 | 12 | 8.0 | 17.7 | 0.00 | 1.60 | 0.00 | 82 | 1015.7 |